Time;durP1;ratioP1;P1;durP2;ratioP2;P2;SDS_P1;SDS_P2;PMS_P1;PMS_P2;Temp;Humidity;BMP_temperature;BMP_pressure;BME280_temperature;BME280_humidity;BME280_pressure;Samples;Min_cycle;Max_cycle;Signal;HPM_P1;HPM_P2
2022/09/01 02:04:55;;;;;;;;;;;;;;;16.14;71.24;98312.84;4989997;28;20888;-89
2022/09/01 02:07:26;;;;;;;;;;;;;;;16.05;71.72;98317.59;5009816;28;19925;-88
2022/09/01 02:09:55;;;;;;;;;;;;;;;16.04;71.70;98313.25;5003914;28;20024;-89
2022/09/01 02:12:25;;;;;;;;;;;;;;;15.95;72.40;98318.81;5012662;28;19929;-90
2022/09/01 02:14:56;;;;;;;;;;;;;;;15.90;72.63;98315.47;5007839;28;19929;-88
2022/09/01 02:17:25;;;;;;;;;;;;;;;16.03;72.01;98308.91;5004574;28;19977;-88
2022/09/01 02:19:56;;;;;;;;;;;;;;;16.06;71.82;98305.50;5019943;28;19922;-89
2022/09/01 02:22:25;;;;;;;;;;;;;;;16.00;72.07;98304.09;5017424;28;19921;-89
2022/09/01 02:24:54;;;;;;;;;;;;;;;16.03;71.88;98308.09;5017468;28;19929;-89
2022/09/01 02:30:16;;;;;;;;;;;;;;;15.96;72.12;98300.44;4997594;28;19937;-83
2022/09/01 02:32:44;;;;;;;;;;;;;;;15.89;72.39;98300.97;5013161;28;19929;-89
2022/09/01 02:35:15;;;;;;;;;;;;;;;15.83;72.73;98293.31;5017742;28;20032;-90
2022/09/01 02:37:48;;;;;;;;;;;;;;;15.79;72.55;98297.84;5015175;28;19922;-88
2022/09/01 02:40:17;;;;;;;;;;;;;;;15.80;72.82;98300.25;5016988;28;19964;-90
2022/09/01 02:42:46;;;;;;;;;;;;;;;15.79;72.83;98295.91;5031664;28;19947;-89
2022/09/01 02:45:16;;;;;;;;;;;;;;;15.85;72.63;98299.25;5025957;28;19945;-88
2022/09/01 02:47:47;;;;;;;;;;;;;;;15.78;72.82;98294.31;5008176;28;19922;-89
2022/09/01 02:50:18;;;;;;;;;;;;;;;15.97;72.14;98291.06;5028574;28;19921;-88
2022/09/01 02:52:48;;;;;;;;;;;;;;;15.88;72.56;98296.66;5011560;28;19921;-88
2022/09/01 02:55:22;;;;;;;;;;;;;;;15.75;72.96;98294.19;5016827;28;19921;-90
2022/09/01 02:57:51;;;;;;;;;;;;;;;15.84;72.40;98286.69;5015284;28;19929;-89
2022/09/01 03:00:27;;;;;;;;;;;;;;;15.75;72.56;98289.50;5005809;28;20424;-89
2022/09/01 03:02:56;;;;;;;;;;;;;;;15.78;72.53;98293.53;5009892;28;19928;-86
2022/09/01 03:05:28;;;;;;;;;;;;;;;15.87;72.21;98286.00;5017924;28;19921;-90
2022/09/01 03:11:46;;;;;;;;;;;;;;;15.78;72.68;98283.34;5015234;28;19979;-90
2022/09/01 03:14:18;;;;;;;;;;;;;;;15.80;72.54;98280.28;5011018;28;19925;-87
2022/09/01 03:16:47;;;;;;;;;;;;;;;15.78;72.36;98279.81;5003818;28;20355;-89
2022/09/01 03:19:16;;;;;;;;;;;;;;;15.77;72.56;98281.75;5010951;28;19925;-89
2022/09/01 03:21:47;;;;;;;;;;;;;;;15.82;72.48;98283.47;5011098;28;19975;-87
2022/09/01 03:24:22;;;;;;;;;;;;;;;15.67;72.96;98277.50;5017793;28;20004;-90
2022/09/01 03:26:52;;;;;;;;;;;;;;;15.63;73.17;98282.03;5027261;28;20272;-88
2022/09/01 03:29:20;;;;;;;;;;;;;;;15.77;72.47;98280.97;5016102;28;19921;-88
2022/09/01 03:34:44;;;;;;;;;;;;;;;15.61;73.23;98278.81;5014210;28;19922;-88
2022/09/01 03:37:12;;;;;;;;;;;;;;;15.71;72.84;98278.44;5016205;28;19960;-88
2022/09/01 03:39:42;;;;;;;;;;;;;;;15.55;73.40;98280.13;5017384;28;19921;-88
2022/09/01 03:42:11;;;;;;;;;;;;;;;15.44;73.85;98277.00;5017592;28;19922;-89
2022/09/01 03:44:43;;;;;;;;;;;;;;;15.42;73.81;98271.06;5017637;28;19943;-88
2022/09/01 03:47:14;;;;;;;;;;;;;;;15.42;73.79;98270.25;5016014;28;20003;-88
2022/09/01 03:49:42;;;;;;;;;;;;;;;15.27;74.42;98268.13;5013625;28;20024;-90
2022/09/01 03:52:16;;;;;;;;;;;;;;;15.32;73.93;98276.94;5010379;28;19921;-89
2022/09/01 03:54:46;;;;;;;;;;;;;;;15.48;73.64;98279.06;5010790;28;19922;-90
2022/09/01 03:57:15;;;;;;;;;;;;;;;15.54;73.16;98275.78;5011028;28;19922;-90
2022/09/01 03:59:44;;;;;;;;;;;;;;;15.44;73.60;98267.97;5009427;28;19937;-88
2022/09/01 04:02:38;;;;;;;;;;;;;;;15.51;73.04;98267.47;5004748;28;19936;-87
2022/09/01 04:05:06;;;;;;;;;;;;;;;15.37;73.79;98273.19;5011806;28;19925;-88
2022/09/01 04:07:35;;;;;;;;;;;;;;;15.44;73.54;98267.97;5011354;28;19930;-91
2022/09/01 04:10:10;;;;;;;;;;;;;;;15.42;73.52;98268.31;5003496;28;20008;-89
2022/09/01 04:12:38;;;;;;;;;;;;;;;15.12;74.61;98273.03;5013612;28;20395;-90
2022/09/01 04:15:07;;;;;;;;;;;;;;;15.20;74.22;98260.44;5008120;28;19928;-87
2022/09/01 04:20:24;;;;;;;;;;;;;;;15.10;74.74;98274.50;5001646;28;20008;-86
2022/09/01 04:22:56;;;;;;;;;;;;;;;15.07;74.69;98265.00;5029420;28;19921;-88
2022/09/01 04:25:26;;;;;;;;;;;;;;;15.11;74.70;98268.69;5010229;28;19948;-89
2022/09/01 04:27:55;;;;;;;;;;;;;;;15.20;73.74;98268.66;5013725;28;20393;-89
2022/09/01 04:30:32;;;;;;;;;;;;;;;15.22;73.70;98265.56;5016044;28;19922;-88
2022/09/01 04:33:36;;;;;;;;;;;;;;;15.09;73.89;98264.72;5006527;28;19930;-86
2022/09/01 04:36:06;;;;;;;;;;;;;;;14.87;74.23;98271.28;5011808;28;19922;-90
2022/09/01 04:38:36;;;;;;;;;;;;;;;14.97;74.15;98276.38;5010825;28;19925;-89
2022/09/01 04:41:08;;;;;;;;;;;;;;;14.97;74.04;98283.75;5013334;28;19928;-89
2022/09/01 04:43:36;;;;;;;;;;;;;;;14.88;74.39;98281.09;5005712;28;19922;-89
2022/09/01 04:46:04;;;;;;;;;;;;;;;14.90;74.03;98278.81;5012574;28;19947;-89
2022/09/01 04:48:33;;;;;;;;;;;;;;;14.75;74.23;98282.09;5017162;28;20626;-80
2022/09/01 04:51:01;;;;;;;;;;;;;;;14.75;74.38;98282.09;5004875;28;19921;-89
2022/09/01 04:53:32;;;;;;;;;;;;;;;14.91;73.77;98283.97;5003473;28;20080;-88
2022/09/01 04:56:03;;;;;;;;;;;;;;;14.97;73.14;98287.31;5011185;28;20308;-87
2022/09/01 04:58:37;;;;;;;;;;;;;;;14.76;74.21;98291.94;5014508;28;20012;-87
2022/09/01 05:01:13;;;;;;;;;;;;;;;14.80;74.13;98292.84;5024396;28;19972;-90
2022/09/01 05:03:42;;;;;;;;;;;;;;;14.99;73.33;98287.78;5012007;28;19957;-89
2022/09/01 05:06:16;;;;;;;;;;;;;;;15.07;73.09;98286.09;5012909;28;19921;-89
2022/09/01 05:08:52;;;;;;;;;;;;;;;15.07;72.90;98292.38;5007027;28;19922;-94
2022/09/01 05:11:37;;;;;;;;;;;;;;;15.12;72.57;98296.88;5015528;28;20376;-87
2022/09/01 05:14:19;;;;;;;;;;;;;;;14.94;73.48;98293.44;5013249;28;20344;-90
2022/09/01 05:16:48;;;;;;;;;;;;;;;15.10;72.74;98297.19;5009240;28;19921;-85
2022/09/01 05:19:16;;;;;;;;;;;;;;;15.05;72.98;98294.66;5006402;28;19925;-92
2022/09/01 05:21:45;;;;;;;;;;;;;;;14.84;73.39;98291.06;5024731;28;19921;-90
2022/09/01 05:24:15;;;;;;;;;;;;;;;15.04;72.79;98298.53;5006690;28;19940;-90
2022/09/01 05:26:49;;;;;;;;;;;;;;;15.00;72.78;98296.78;5025941;28;19928;-90
2022/09/01 05:29:24;;;;;;;;;;;;;;;15.02;72.79;98299.97;5025090;28;19928;-86
2022/09/01 05:32:17;;;;;;;;;;;;;;;14.91;72.76;98303.13;5003598;28;20017;-89
2022/09/01 06:43:16;;;;;;;572.85;200.15;;;;;;;15.87;67.35;98325.19;4975840;28;20437;-85
2022/09/01 06:46:09;;;;;;;750.75;264.40;;;;;;;16.02;66.71;98329.22;5001532;28;20409;-80
2022/09/01 06:48:58;;;;;;;89.88;53.65;;;;;;;15.79;67.16;98328.00;4997160;28;20423;-80
2022/09/01 06:51:48;;;;;;;569.38;213.55;;;;;;;15.69;66.96;98327.25;5000319;28;20752;-83
2022/09/01 06:57:56;;;;;;;197.75;66.93;;;;;;;15.91;67.18;98325.28;5000007;28;20732;-85
2022/09/01 07:00:56;;;;;;;907.30;317.20;;;;;;;16.04;66.88;98323.44;4992171;28;20444;-80
2022/09/01 07:03:47;;;;;;;1290.93;428.88;;;;;;;16.13;66.78;98341.38;5002513;28;20511;-84
2022/09/01 07:06:37;;;;;;;;;;;;;;;16.20;66.65;98333.41;5002406;28;20412;-82
2022/09/01 07:10:06;;;;;;;378.27;134.57;;;;;;;16.36;66.27;98338.25;5010759;28;20409;-81
2022/09/01 07:13:24;;;;;;;24.67;11.57;;;;;;;16.38;64.69;98338.72;5018561;28;20524;-81
2022/09/01 07:16:21;;;;;;;229.80;76.90;;;;;;;16.29;65.34;98341.53;5002333;28;20408;-82
2022/09/01 07:19:24;;;;;;;22.17;7.20;;;;;;;16.26;64.70;98341.44;5007788;28;20470;-84
2022/09/01 07:22:59;;;;;;;4.38;1.95;;;;;;;16.46;64.77;98337.84;4990268;28;20869;-83
2022/09/01 07:25:54;;;;;;;336.50;118.50;;;;;;;16.72;63.96;98334.78;4998160;28;20437;-88
2022/09/01 07:28:53;;;;;;;6.63;2.40;;;;;;;16.86;63.92;98345.47;4998880;28;20431;-85
2022/09/01 07:32:19;;;;;;;74.15;44.65;;;;;;;17.05;63.29;98351.19;4999754;28;20544;-84
2022/09/01 07:35:31;;;;;;;48.15;13.25;;;;;;;16.87;63.75;98356.09;4993980;28;20864;-87
2022/09/01 07:38:21;;;;;;;39.10;7.50;;;;;;;16.87;63.51;98349.78;4989789;28;20418;-87
2022/09/01 07:41:31;;;;;;;63.50;9.60;;;;;;;16.97;62.65;98350.16;4998042;28;20407;-88
2022/09/01 07:45:00;;;;;;;56.67;17.75;;;;;;;17.09;62.60;98351.28;4992323;28;20445;-84
2022/09/01 07:48:24;;;;;;;4.93;2.13;;;;;;;17.06;62.11;98355.53;4998218;28;20404;-86
2022/09/01 07:51:57;;;;;;;262.23;69.70;;;;;;;17.05;62.12;98351.19;4998697;28;20886;-83
2022/09/01 07:54:48;;;;;;;3.95;2.13;;;;;;;17.27;61.15;98339.75;5001665;28;20410;-84
2022/09/01 07:57:37;;;;;;;297.95;99.10;;;;;;;17.45;61.36;98344.97;5000472;28;20404;-85
2022/09/01 08:00:30;;;;;;;95.28;24.85;;;;;;;17.87;59.67;98352.91;4998441;28;20508;-89
2022/09/01 08:03:27;;;;;;;7.38;2.22;;;;;;;17.86;59.24;98343.88;4993970;28;20456;-83
2022/09/01 08:06:19;;;;;;;3.80;1.90;;;;;;;17.90;58.99;98347.53;4999085;28;21198;-87
2022/09/01 08:09:11;;;;;;;11.00;3.00;;;;;;;17.96;58.94;98345.34;5000899;28;20510;-85
2022/09/01 08:12:21;;;;;;;4.50;2.30;;;;;;;17.96;59.60;98345.34;5023356;28;20418;-81
2022/09/01 08:15:17;;;;;;;8.32;3.55;;;;;;;17.83;59.51;98357.50;5004334;28;20965;-85
2022/09/01 08:18:27;;;;;;;4.53;2.35;;;;;;;17.86;60.36;98348.56;5004085;28;20399;-89
2022/09/01 08:21:17;;;;;;;4.33;2.33;;;;;;;17.98;58.67;98345.78;4999388;28;20400;-88
2022/09/01 08:24:21;;;;;;;3.80;2.13;;;;;;;18.30;58.37;98343.91;5011254;28;20452;-86
2022/09/01 08:30:26;;;;;;;;;;;;;;;18.81;57.58;98342.16;5016245;28;20429;-87
2022/09/01 08:33:17;;;;;;;892.03;267.00;;;;;;;18.96;56.29;98348.00;5001536;28;20944;-87
2022/09/01 08:36:09;;;;;;;;;;;;;;;18.77;56.69;98351.47;5003775;28;20411;-86
2022/09/01 08:38:58;;;;;;;;;;;;;;;18.70;56.28;98351.31;5004726;28;19925;-87
2022/09/01 08:41:48;;;;;;;;;;;;;;;18.74;55.85;98352.97;5008403;28;19922;-88
2022/09/01 08:45:02;;;;;;;;;;;;;;;18.82;55.39;98354.75;4992353;28;20364;-87
2022/09/01 08:47:53;;;;;;;;;;;;;;;19.00;56.26;98354.41;4998646;28;19921;-87
2022/09/01 08:51:05;;;;;;;;;;;;;;;19.26;55.09;98356.59;4997864;28;19929;-85
2022/09/01 08:54:20;;;;;;;;;;;;;;;19.31;55.00;98354.38;4997344;28;19926;-86
2022/09/01 08:57:21;;;;;;;;;;;;;;;19.29;55.08;98358.66;5002713;28;20292;-90
2022/09/01 09:00:44;;;;;;;;;;;;;;;19.32;54.05;98361.47;5000112;28;20288;-86
2022/09/01 09:03:37;;;;;;;;;;;;;;;19.36;53.65;98361.56;5023370;28;20581;-85
2022/09/01 09:06:29;;;;;;;;;;;;;;;19.32;54.22;98355.97;5009608;28;19956;-89
2022/09/01 09:09:21;;;;;;;;;;;;;;;19.46;53.93;98360.22;5008262;28;20365;-88
2022/09/01 09:12:34;;;;;;;;;;;;;;;19.61;54.25;98359.41;5019078;28;19910;-77
2022/09/01 09:15:38;;;;;;;;;;;;;;;19.09;54.50;98366.03;5002535;28;19940;-87
2022/09/01 09:18:29;;;;;;;;;;;;;;;19.26;53.98;98362.91;5012797;28;19922;-87
2022/09/01 09:21:24;;;;;;;;;;;;;;;19.34;54.38;98364.69;4978382;28;20381;-85
2022/09/01 09:24:13;;;;;;;;;;;;;;;19.41;53.59;98360.50;5002404;28;19921;-82
2022/09/01 09:27:11;;;;;;;;;;;;;;;19.31;53.80;98359.88;5003521;28;19921;-87
2022/09/01 09:30:00;;;;;;;;;;;;;;;19.27;54.74;98361.75;5002267;28;19921;-86
2022/09/01 09:33:33;;;;;;;;;;;;;;;19.49;53.83;98354.78;5005938;28;19929;-88
2022/09/01 09:36:40;;;;;;;;;;;;;;;19.43;52.67;98358.16;4999948;28;19925;-88
2022/09/01 09:39:29;;;;;;;;;;;;;;;19.85;53.59;98353.63;5003427;28;19921;-85
2022/09/01 09:42:19;;;;;;;;;;;;;;;19.99;51.86;98355.09;5008527;28;20356;-82
2022/09/01 09:48:30;;;;;;;;;;;;;;;19.59;53.59;98347.94;5013050;28;20292;-85
2022/09/01 09:51:20;;;;;;;;;;;;;;;19.84;51.74;98349.28;5003072;28;19945;-86
2022/09/01 09:54:13;;;;;;;;;;;;;;;19.55;51.36;98356.09;5004178;28;19991;-83
2022/09/01 09:57:06;;;;;;;;;;;;;;;19.97;51.19;98352.69;5003795;28;19932;-84
2022/09/01 09:59:57;;;;;;;;;;;;;;;19.84;51.63;98354.78;5005456;28;20016;-86
2022/09/01 10:02:52;;;;;;;;;;;;;;;19.71;51.51;98350.59;5000007;28;19921;-83
2022/09/01 10:05:43;;;;;;;;;;;;;;;19.71;50.81;98349.75;4998163;28;19929;-82
2022/09/01 10:08:59;;;;;;;970.95;325.77;;;;;;;19.79;50.79;98344.03;5000275;28;20915;-83
2022/09/01 10:11:52;;;;;;;701.85;254.82;;;;;;;19.90;50.38;98341.50;5006710;28;20426;-86
2022/09/01 10:14:49;;;;;;;706.57;257.20;;;;;;;19.95;49.57;98334.91;5009812;28;20928;-85
2022/09/01 10:21:22;;;;;;;832.60;293.77;;;;;;;20.07;49.05;98335.56;4995394;28;20493;-86
2022/09/01 10:24:14;;;;;;;;;;;;;;;20.27;50.31;98339.09;5005307;28;20784;-86
2022/09/01 10:27:14;;;;;;;253.35;73.47;;;;;;;20.22;47.96;98336.63;4995872;28;20405;-83
2022/09/01 10:30:04;;;;;;;;;;;;;;;20.30;48.20;98345.88;5002395;28;20405;-84
2022/09/01 10:33:15;;;;;;;945.95;325.65;;;;;;;20.31;49.29;98336.44;5000444;28;20384;-88
2022/09/01 10:36:09;;;;;;;1241.57;397.70;;;;;;;20.24;47.12;98334.34;4998409;28;20652;-84
2022/09/01 10:38:57;;;;;;;;;;;;;;;20.24;47.72;98339.84;4999137;28;20412;-82
2022/09/01 10:41:55;;;;;;;1022.60;343.87;;;;;;;20.42;46.94;98337.41;4999601;28;20406;-84
2022/09/01 10:44:57;;;;;;;755.28;260.70;;;;;;;20.36;46.61;98331.41;4995921;28;20924;-84
2022/09/01 10:47:47;;;;;;;540.33;204.65;;;;;;;20.48;47.30;98335.97;5006663;28;20399;-85
2022/09/01 10:50:42;;;;;;;531.10;201.50;;;;;;;20.59;48.17;98333.41;5010042;28;20394;-83
2022/09/01 10:53:41;;;;;;;891.53;311.15;;;;;;;20.73;48.04;98328.16;5005683;28;20925;-83
2022/09/01 10:56:38;;;;;;;1999.90;649.05;;;;;;;21.03;48.15;98321.91;5000824;28;20539;-83
2022/09/01 10:59:34;;;;;;;;;;;;;;;21.09;47.32;98329.53;5003334;28;20379;-83
2022/09/01 11:02:28;;;;;;;;;;;;;;;21.32;46.66;98329.53;5002156;28;19932;-85
2022/09/01 11:05:25;;;;;;;;;;;;;;;21.28;46.61;98325.06;5000916;28;19925;-85
2022/09/01 11:09:10;;;;;;;;;;;;;;;21.31;47.69;98325.16;5000645;28;19961;-88
2022/09/01 11:12:39;;;;;;;329.52;143.80;;;;;;;21.30;47.22;98323.53;5012382;28;20660;-82
2022/09/01 11:15:57;;;;;;;2.72;1.65;;;;;;;21.48;46.98;98334.88;5005187;28;20430;-87
2022/09/01 11:18:49;;;;;;;3.53;1.70;;;;;;;21.58;47.70;98334.25;4997150;28;20413;-83
2022/09/01 11:21:38;;;;;;;3.63;2.05;;;;;;;21.59;45.92;98323.97;5003239;28;20419;-87
2022/09/01 11:24:47;;;;;;;3.25;1.50;;;;;;;21.70;46.21;98317.41;4999104;28;20400;-88
2022/09/01 11:31:21;;;;;;;;;;;;;;;21.51;46.39;98325.03;5000032;28;20400;-85
2022/09/01 11:34:15;;;;;;;;;;;;;;;21.11;46.62;98324.44;4995126;28;20396;-87
2022/09/01 11:37:10;;;;;;;;;;;;;;;21.11;47.41;98326.41;5001031;28;20357;-83
2022/09/01 11:40:00;;;;;;;;;;;;;;;20.79;47.59;98315.63;5004387;28;19929;-87
2022/09/01 11:42:56;;;;;;;;;;;;;;;20.68;46.98;98320.16;5013904;28;19928;-84
2022/09/01 11:45:58;;;;;;;1154.50;372.88;;;;;;;20.51;46.39;98324.22;4996506;28;20928;-85
2022/09/01 11:48:49;;;;;;;1294.15;410.50;;;;;;;20.59;46.95;98317.66;5001304;28;20439;-85
2022/09/01 11:51:45;;;;;;;678.97;248.45;;;;;;;20.56;47.33;98323.91;5004252;28;20768;-83
2022/09/01 11:54:39;;;;;;;746.72;267.33;;;;;;;20.58;47.42;98315.25;4998610;28;20887;-83
2022/09/01 11:57:31;;;;;;;1259.53;408.23;;;;;;;20.47;47.86;98330.84;5006996;28;20950;-88
2022/09/01 12:00:28;;;;;;;1226.95;394.52;;;;;;;20.46;48.13;98330.03;4997682;28;20456;-84
2022/09/01 12:03:27;;;;;;;150.95;76.18;;;;;;;20.55;47.68;98321.50;4992329;28;21115;-88
2022/09/01 12:06:19;;;;;;;;;;;;;;;20.53;46.43;98324.63;4999118;28;20935;-83
2022/09/01 12:09:07;;;;;;;;;;;;;;;20.60;46.71;98318.44;4999119;28;20079;-85
2022/09/01 12:11:56;;;;;;;;;;;;;;;20.57;46.72;98310.91;4999040;28;20318;-88
2022/09/01 12:14:44;;;;;;;;;;;;;;;20.51;46.87;98304.09;5016197;28;20431;-81
2022/09/01 12:17:52;;;;;;;;;;;;;;;20.56;47.70;98314.81;5000236;28;19931;-87
2022/09/01 12:20:46;;;;;;;;;;;;;;;20.67;48.17;98315.81;5003502;28;19996;-83
2022/09/01 12:23:41;;;;;;;;;;;;;;;20.66;47.84;98305.91;5001069;28;19937;-78
2022/09/01 12:26:31;;;;;;;1966.40;593.95;;;;;;;20.76;48.37;98299.78;5001616;28;20994;-84
2022/09/01 12:29:19;;;;;;;656.70;238.20;;;;;;;20.52;49.76;98305.69;5007922;28;20394;-86
2022/09/01 12:32:11;;;;;;;;;;;;;;;20.43;48.48;98297.63;5004113;28;20410;-85
2022/09/01 12:35:01;;;;;;;;;;;;;;;20.58;48.55;98301.47;5005962;28;19925;-84
2022/09/01 12:38:11;;;;;;;;;;;;;;;20.41;47.70;98302.72;5007181;28;19921;-83
2022/09/01 12:41:22;;;;;;;;;;;;;;;20.59;49.06;98301.09;5005633;28;19925;-87
2022/09/01 12:44:29;;;;;;;;;;;;;;;20.77;48.36;98303.34;5007396;28;19925;-84
2022/09/01 12:47:37;;;;;;;;;;;;;;;20.72;48.16;98298.13;5006793;28;20283;-88
2022/09/01 12:50:42;;;;;;;;;;;;;;;20.80;47.05;98297.88;5001913;28;19989;-85
2022/09/01 12:53:32;;;;;;;;;;;;;;;20.59;47.57;98294.78;5005757;28;20234;-88
2022/09/01 12:56:28;;;;;;;;;;;;;;;20.79;46.13;98292.75;5001453;28;19921;-86
2022/09/01 12:59:21;;;;;;;;;;;;;;;20.61;47.15;98295.19;5007321;28;19925;-85
2022/09/01 13:02:29;;;;;;;;;;;;;;;21.01;47.52;98293.88;5002887;28;20012;-87
2022/09/01 13:05:25;;;;;;;;;;;;;;;21.10;45.65;98286.94;5002456;28;19926;-87
2022/09/01 13:08:38;;;;;;;;;;;;;;;21.17;45.34;98289.00;5005362;28;20309;-83
2022/09/01 13:11:35;;;;;;;;;;;;;;;20.88;42.61;98285.81;5003463;28;19933;-86
2022/09/01 13:14:43;;;;;;;;;;;;;;;20.69;42.84;98287.84;5021024;28;19993;-82
2022/09/01 13:17:32;;;;;;;;;;;;;;;20.75;42.56;98280.84;5010347;28;20914;-86
2022/09/01 13:20:45;;;;;;;;;;;;;;;20.82;42.75;98278.97;5003028;28;20003;-87
2022/09/01 13:23:34;;;;;;;;;;;;;;;20.98;42.65;98272.50;5001374;28;20003;-85
2022/09/01 13:26:22;;;;;;;;;;;;;;;21.10;44.83;98270.34;5004421;28;19922;-85
2022/09/01 13:29:16;;;;;;;116.65;71.00;;;;;;;21.22;41.69;98268.53;5012833;28;20391;-85
2022/09/01 13:32:05;;;;;;;531.05;201.85;;;;;;;21.13;41.80;98266.03;5005065;28;20414;-84
2022/09/01 13:35:15;;;;;;;768.20;282.30;;;;;;;21.18;42.12;98274.00;4996869;28;20422;-78
2022/09/01 13:38:04;;;;;;;391.42;157.25;;;;;;;21.03;42.86;98266.66;5002570;28;20460;-80
2022/09/01 13:40:55;;;;;;;516.40;198.25;;;;;;;21.10;44.25;98270.34;5003798;28;20891;-79
2022/09/01 13:44:10;;;;;;;467.67;180.50;;;;;;;21.23;44.02;98254.34;5003762;28;20472;-81
2022/09/01 13:47:00;;;;;;;513.20;197.60;;;;;;;21.41;43.91;98263.72;4998121;28;20482;-82
2022/09/01 13:53:44;;;;;;;1127.83;391.67;;;;;;;21.73;42.78;98257.78;5005815;28;20488;-84
2022/09/01 13:56:34;;;;;;;459.27;175.75;;;;;;;21.33;43.00;98253.72;5002085;28;20416;-83
2022/09/01 13:59:22;;;;;;;935.67;330.58;;;;;;;21.47;43.08;98255.91;4999576;28;20441;-80
2022/09/01 14:02:12;;;;;;;791.20;287.27;;;;;;;21.58;41.99;98250.50;5000162;28;20401;-83
2022/09/01 14:05:01;;;;;;;1033.13;365.57;;;;;;;21.71;44.03;98243.53;4997573;28;20891;-82
2022/09/01 14:07:50;;;;;;;800.80;291.33;;;;;;;21.75;41.95;98249.91;4996502;28;20877;-83
2022/09/01 14:11:02;;;;;;;;;;;;;;;21.85;41.02;98254.78;5003191;28;20891;-82
2022/09/01 14:13:50;;;;;;;;;;;;;;;21.83;41.54;98246.03;4996402;28;20017;-84
2022/09/01 14:16:39;;;;;;;;;;;;;;;22.05;42.64;98236.03;5006215;28;19973;-86
2022/09/01 14:19:30;;;;;;;;;;;;;;;21.67;40.75;98237.16;5009006;28;19925;-82
2022/09/01 14:22:18;;;;;;;;;;;;;;;21.48;41.75;98240.09;5013356;28;19929;-83
2022/09/01 14:25:07;;;;;;;;;;;;;;;21.36;41.16;98230.88;5002674;28;20123;-85
2022/09/01 14:28:21;;;;;;;;;;;;;;;21.33;41.52;98234.38;5004339;28;20119;-87
2022/09/01 14:31:10;;;;;;;;;;;;;;;21.31;41.51;98225.69;4991645;28;20436;-88
2022/09/01 14:33:58;;;;;;;;;;;;;;;21.32;42.28;98227.28;5028534;28;20087;-84
2022/09/01 14:37:13;;;;;;;;;;;;;;;21.53;41.62;98228.72;5006638;28;19932;-85
2022/09/01 14:40:02;;;;;;;;;;;;;;;21.61;41.44;98222.09;4999835;28;20011;-85
2022/09/01 14:42:52;;;;;;;893.85;316.00;;;;;;;21.53;40.59;98225.94;5003532;28;21329;-81
2022/09/01 14:46:09;;;;;;;832.92;298.77;;;;;;;21.70;40.71;98225.38;5004154;28;20416;-86
2022/09/01 14:49:01;;;;;;;844.22;301.98;;;;;;;21.95;40.16;98212.63;5007039;28;20408;-86
2022/09/01 14:51:49;;;;;;;714.30;264.15;;;;;;;22.13;40.94;98209.25;5000353;28;20417;-86
2022/09/01 14:55:00;;;;;;;778.37;285.10;;;;;;;22.08;39.95;98206.81;4998038;28;20793;-86
2022/09/01 14:57:51;;;;;;;779.78;285.02;;;;;;;22.39;39.66;98209.09;5001612;28;20503;-88
2022/09/01 15:01:05;;;;;;;762.83;280.57;;;;;;;22.61;38.98;98206.50;4996415;28;20429;-84
2022/09/01 15:04:14;;;;;;;;;;;;;;;22.36;39.91;98207.09;5008712;28;20412;-86
2022/09/01 15:07:06;;;;;;;;;;;;;;;22.14;40.60;98206.09;5013214;28;19921;-85
2022/09/01 15:09:56;;;;;;;;;;;;;;;22.26;39.52;98205.03;5011837;28;19928;-84
2022/09/01 15:12:49;;;;;;;;;;;;;;;22.18;40.23;98206.16;5000675;28;19952;-87
2022/09/01 15:15:38;;;;;;;;;;;;;;;21.75;40.96;98210.41;5003018;28;20388;-84
2022/09/01 15:18:26;;;;;;;;;;;;;;;21.69;41.70;98213.50;5004851;28;19921;-87
2022/09/01 15:21:20;;;;;;;900.03;324.23;;;;;;;21.45;41.91;98209.25;4995431;28;20507;-83
2022/09/01 15:24:09;;;;;;;778.70;285.23;;;;;;;21.31;42.39;98203.56;5005629;28;20407;-81
2022/09/01 15:26:58;;;;;;;814.25;296.30;;;;;;;21.23;42.58;98207.38;5007871;28;20424;-85
2022/09/01 15:30:15;;;;;;;930.83;329.65;;;;;;;21.06;43.05;98202.41;5009663;28;20895;-84
2022/09/01 15:33:28;;;;;;;942.20;336.08;;;;;;;21.18;43.30;98204.94;5007676;28;20406;-78
2022/09/01 15:36:19;;;;;;;897.25;323.45;;;;;;;21.19;43.12;98206.53;5016009;28;20420;-83
2022/09/01 15:39:09;;;;;;;839.20;305.20;;;;;;;21.27;43.19;98210.19;5013485;28;20405;-83
2022/09/01 15:41:57;;;;;;;;;;;;;;;21.14;42.61;98198.56;5019049;28;20528;-79
2022/09/01 15:44:46;;;;;;;;;;;;;;;20.96;43.69;98209.38;5012591;28;19937;-83
2022/09/01 15:47:37;;;;;;;;;;;;;;;20.80;44.41;98217.00;5011860;28;20339;-83
2022/09/01 15:50:52;;;;;;;;;;;;;;;20.88;43.94;98213.22;5003090;28;19921;-85
2022/09/01 15:53:42;;;;;;;;;;;;;;;20.81;43.64;98215.84;5020476;28;20402;-81
2022/09/01 15:56:33;;;;;;;;;;;;;;;20.78;44.43;98216.59;4997186;28;20114;-85
2022/09/01 15:59:22;;;;;;;;;;;;;;;20.72;44.45;98213.38;4998074;28;20044;-87
2022/09/01 16:02:11;;;;;;;;;;;;;;;20.74;44.01;98210.22;5001992;28;19925;-83
2022/09/01 16:05:01;;;;;;;;;;;;;;;20.76;44.18;98205.91;5002153;28;19929;-84
2022/09/01 16:07:50;;;;;;;;;;;;;;;20.73;44.64;98205.88;5006272;28;20561;-87
2022/09/01 16:10:40;;;;;;;;;;;;;;;20.65;43.62;98204.94;4994940;28;19925;-85
2022/09/01 16:16:44;;;;;;;;;;;;;;;20.49;43.25;98207.06;5006576;28;19925;-82
2022/09/01 16:19:36;;;;;;;;;;;;;;;20.46;43.16;98211.38;5006012;28;19925;-87
2022/09/01 16:22:27;;;;;;;;;;;;;;;20.47;43.02;98209.41;5018203;28;20729;-86
2022/09/01 16:25:17;;;;;;;;;;;;;;;20.48;42.46;98205.47;5005630;28;19925;-88
2022/09/01 16:27:45;;;;;;;;;;;;;;;20.44;43.28;98205.38;5009673;28;19926;-86
2022/09/01 16:30:20;;;;;;;;;;;;;;;20.43;42.98;98203.78;5012213;28;19978;-87
2022/09/01 16:33:18;;;;;;;;;;;;;;;20.38;42.08;98196.59;4996500;28;20017;-88
2022/09/01 16:38:53;;;;;;;;;;;;;;;20.39;42.46;98202.91;5007585;28;19949;-87
2022/09/01 16:41:41;;;;;;;;;;;;;;;20.40;42.10;98202.56;4998779;28;19926;-87
2022/09/01 16:44:14;;;;;;;;;;;;;;;20.37;42.33;98200.53;5006681;28;19922;-88
2022/09/01 16:46:44;;;;;;;;;;;;;;;20.36;42.77;98204.47;5002983;28;20269;-84
2022/09/01 16:49:37;;;;;;;;;;;;;;;20.26;43.01;98196.81;4993699;28;19925;-87
2022/09/01 16:52:30;;;;;;;;;;;;;;;20.27;43.20;98203.13;5002264;28;19921;-86
2022/09/01 16:55:01;;;;;;;;;;;;;;;20.22;43.54;98203.44;5008260;28;19925;-88
2022/09/01 16:57:34;;;;;;;;;;;;;;;20.18;43.58;98206.09;5008029;28;19927;-85
2022/09/01 17:00:05;;;;;;;;;;;;;;;20.19;44.00;98199.44;5009477;28;20019;-85
2022/09/01 17:02:40;;;;;;;;;;;;;;;20.20;44.34;98211.28;5012343;28;19922;-88
2022/09/01 17:05:15;;;;;;;;;;;;;;;20.07;44.92;98205.94;5024877;28;19929;-88
2022/09/01 17:07:45;;;;;;;;;;;;;;;20.07;44.71;98199.63;5005683;28;19926;-85
2022/09/01 17:10:18;;;;;;;;;;;;;;;20.05;45.23;98199.19;5007623;28;19956;-88
2022/09/01 17:12:49;;;;;;;;;;;;;;;20.08;45.25;98198.44;5012931;28;19922;-87
2022/09/01 17:15:19;;;;;;;;;;;;;;;20.03;45.65;98198.78;5013061;28;19933;-86
2022/09/01 17:17:49;;;;;;;;;;;;;;;20.01;45.90;98195.56;5015285;28;19925;-87
2022/09/01 17:20:20;;;;;;;;;;;;;;;19.97;46.30;98203.78;5000937;28;20325;-87
2022/09/01 17:22:50;;;;;;;;;;;;;;;19.97;46.29;98198.25;5007955;28;19944;-85
2022/09/01 17:25:23;;;;;;;;;;;;;;;19.93;46.33;98204.88;5013038;28;20024;-86
2022/09/01 17:27:53;;;;;;;;;;;;;;;19.87;46.02;98202.44;5010857;28;20385;-85
2022/09/01 17:36:12;;;;;;;;;;;;;;;19.76;46.92;98208.88;5008442;28;19980;-88
2022/09/01 17:38:44;;;;;;;;;;;;;;;19.73;47.08;98212.38;5010410;28;19992;-89
2022/09/01 17:41:17;;;;;;;;;;;;;;;19.72;47.11;98219.84;5015064;28;19928;-90
2022/09/01 17:43:49;;;;;;;;;;;;;;;19.71;46.60;98217.44;5008307;28;19968;-88
2022/09/01 17:46:20;;;;;;;;;;;;;;;19.69;46.69;98225.28;5009177;28;19925;-87
2022/09/01 17:48:50;;;;;;;;;;;;;;;19.67;47.35;98222.13;5011960;28;19921;-86
2022/09/01 17:51:20;;;;;;;;;;;;;;;19.61;47.33;98224.38;5021273;28;19961;-86
2022/09/01 17:53:50;;;;;;;;;;;;;;;19.55;47.35;98226.59;5010440;28;19925;-86
2022/09/01 17:56:24;;;;;;;;;;;;;;;19.53;47.33;98217.88;5010129;28;19925;-87
2022/09/01 17:58:54;;;;;;;;;;;;;;;19.52;47.35;98221.00;5011995;28;20299;-88